createdAt,value
2022-12-15T00:02:14.157Z,2.57
2022-12-15T00:05:36.812Z,2.57
2022-12-15T00:08:59.602Z,2.30
2022-12-15T00:12:24.038Z,2.23
2022-12-15T00:15:46.500Z,2.00
2022-12-15T00:19:08.798Z,2.30
2022-12-15T00:22:31.511Z,2.30
2022-12-15T00:25:53.976Z,2.07
2022-12-15T00:29:17.639Z,2.17
2022-12-15T00:32:40.740Z,2.07
2022-12-15T00:36:03.111Z,2.20
2022-12-15T00:39:08.104Z,2.23
2022-12-15T00:42:15.021Z,2.20
2022-12-15T00:45:21.413Z,1.93
2022-12-15T00:48:26.281Z,1.90
2022-12-15T00:51:48.700Z,2.30
2022-12-15T00:55:11.243Z,2.30
2022-12-15T00:58:33.963Z,2.20
2022-12-15T01:01:57.671Z,2.20
2022-12-15T01:05:19.893Z,2.30
2022-12-15T01:08:42.991Z,2.23
2022-12-15T01:12:07.382Z,2.30
2022-12-15T01:15:30.566Z,2.13
2022-12-15T01:18:55.287Z,2.30
2022-12-15T01:22:00.192Z,1.90
2022-12-15T01:25:05.638Z,2.03
2022-12-15T01:28:12.845Z,2.17
2022-12-15T01:31:18.214Z,2.30
2022-12-15T01:34:24.760Z,2.00
2022-12-15T01:37:29.682Z,2.37
2022-12-15T01:40:46.709Z,2.37
2022-12-15T01:43:51.732Z,2.13
2022-12-15T01:46:57.893Z,2.13
2022-12-15T01:50:05.862Z,1.90
2022-12-15T01:53:11.712Z,2.20
2022-12-15T01:56:17.334Z,2.17
2022-12-15T01:59:25.172Z,1.83
2022-12-15T02:06:24.495Z,2.27
2022-12-15T02:09:30.096Z,2.00
2022-12-15T02:12:41.579Z,2.10
2022-12-15T02:15:51.994Z,2.27
2022-12-15T02:19:02.332Z,2.00
2022-12-15T02:22:19.143Z,2.07
2022-12-15T02:25:46.295Z,2.30
2022-12-15T02:29:02.983Z,2.37
2022-12-15T02:32:11.437Z,2.00
2022-12-15T02:35:21.994Z,2.13
2022-12-15T02:38:34.733Z,2.00
2022-12-15T02:41:42.554Z,2.10
2022-12-15T02:44:49.752Z,2.20
2022-12-15T02:48:03.426Z,2.07
2022-12-15T02:51:21.930Z,2.20
2022-12-15T02:54:43.526Z,2.13
2022-12-15T02:57:54.701Z,2.37
2022-12-15T03:01:02.606Z,2.23
2022-12-15T03:04:10.553Z,2.30
2022-12-15T03:07:16.008Z,2.30
2022-12-15T03:10:24.048Z,2.30
2022-12-15T03:13:31.674Z,2.27
2022-12-15T03:16:36.631Z,2.40
2022-12-15T03:19:43.151Z,2.43
2022-12-15T03:22:48.036Z,2.30
2022-12-15T03:25:53.019Z,2.20
2022-12-15T03:29:01.663Z,2.30
2022-12-15T03:32:07.165Z,2.33
2022-12-15T03:35:14.182Z,2.30
2022-12-15T03:38:19.243Z,2.30
2022-12-15T03:41:23.866Z,2.17
2022-12-15T03:44:28.777Z,2.77
2022-12-15T03:47:33.864Z,2.40
2022-12-15T03:50:40.879Z,2.90
2022-12-15T03:53:47.567Z,2.83
2022-12-15T03:56:52.613Z,2.80
2022-12-15T03:59:57.568Z,2.40
2022-12-15T04:03:02.294Z,2.63
2022-12-15T04:06:09.586Z,2.17
2022-12-15T04:09:14.647Z,2.70
2022-12-15T04:12:19.571Z,2.27
2022-12-15T04:15:24.675Z,2.50
2022-12-15T04:18:29.794Z,2.60
2022-12-15T04:21:36.227Z,2.53
2022-12-15T04:24:58.874Z,2.50
2022-12-15T04:28:21.598Z,2.57
2022-12-15T04:31:46.579Z,2.57
2022-12-15T04:35:09.054Z,2.67
2022-12-15T04:38:34.569Z,2.60
2022-12-15T04:41:57.006Z,2.53
2022-12-15T04:45:23.214Z,2.50
2022-12-15T04:48:45.491Z,2.83
2022-12-15T04:52:07.876Z,2.80
2022-12-15T04:55:31.942Z,2.60
2022-12-15T04:58:54.191Z,2.50
2022-12-15T05:02:16.730Z,2.30
2022-12-15T05:05:39.463Z,2.53
2022-12-15T05:09:02.056Z,2.77
2022-12-15T05:12:26.401Z,2.70
2022-12-15T05:15:50.519Z,2.87
2022-12-15T05:19:13.019Z,2.50
2022-12-15T05:22:35.593Z,2.77
2022-12-15T05:25:58.195Z,2.77
2022-12-15T05:29:22.067Z,2.70
2022-12-15T05:32:26.987Z,2.50
2022-12-15T05:35:31.898Z,2.70
2022-12-15T05:38:36.851Z,3.03
2022-12-15T05:41:41.794Z,2.83
2022-12-15T05:44:48.034Z,3.07
2022-12-15T05:47:55.120Z,2.90
2022-12-15T05:51:03.837Z,2.70
2022-12-15T05:54:09.190Z,2.60
2022-12-15T05:57:14.728Z,3.17
2022-12-15T06:00:21.785Z,3.37
2022-12-15T06:03:26.748Z,2.40
2022-12-15T06:06:31.921Z,3.33
2022-12-15T06:09:37.067Z,3.13
2022-12-15T06:12:42.093Z,2.80
2022-12-15T06:15:58.529Z,3.00
2022-12-15T06:19:04.756Z,2.90
2022-12-15T06:22:11.995Z,2.50
2022-12-15T06:25:17.791Z,2.63
2022-12-15T06:28:24.154Z,2.37
2022-12-15T06:31:30.837Z,3.13
2022-12-15T06:34:35.755Z,2.80
2022-12-15T06:37:41.187Z,3.13
2022-12-15T06:40:55.322Z,2.57
2022-12-15T06:44:13.015Z,2.70
2022-12-15T06:47:19.351Z,3.10
2022-12-15T06:50:24.471Z,2.90
2022-12-15T06:53:30.008Z,2.97
2022-12-15T06:56:36.825Z,3.17
2022-12-15T06:59:41.695Z,3.03
2022-12-15T07:02:49.849Z,3.27
2022-12-15T07:06:03.794Z,2.93
2022-12-15T07:09:11.920Z,3.67
2022-12-15T07:12:18.285Z,3.37
2022-12-15T07:15:23.200Z,3.33
2022-12-15T07:18:30.562Z,3.60
2022-12-15T07:21:35.564Z,4.20
2022-12-15T07:24:40.463Z,3.53
2022-12-15T07:27:45.467Z,3.97
2022-12-15T07:30:50.511Z,3.77
2022-12-15T07:33:58.311Z,4.20
2022-12-15T07:37:03.833Z,3.60
2022-12-15T07:40:11.116Z,3.80
2022-12-15T07:43:16.176Z,4.20
2022-12-15T07:46:21.755Z,4.27
2022-12-15T07:49:28.096Z,3.90
2022-12-15T07:52:33.092Z,4.90
2022-12-15T07:56:05.677Z,3.93
2022-12-15T07:59:03.270Z,3.67
2022-12-15T08:02:08.589Z,4.10
2022-12-15T08:05:16.085Z,4.27
2022-12-15T08:08:21.110Z,3.93
2022-12-15T08:11:26.179Z,4.20
2022-12-15T08:14:32.269Z,3.90
2022-12-15T08:17:37.295Z,4.30
2022-12-15T08:20:43.893Z,4.03
2022-12-15T08:23:55.466Z,4.17
2022-12-15T08:27:01.047Z,3.97
2022-12-15T08:30:07.117Z,3.70
2022-12-15T08:33:15.185Z,3.97
2022-12-15T08:36:21.920Z,3.67
2022-12-15T08:39:27.209Z,3.53
2022-12-15T08:42:35.217Z,3.70
2022-12-15T08:45:42.932Z,3.97
2022-12-15T08:48:48.333Z,3.80
2022-12-15T08:51:54.714Z,4.50
2022-12-15T08:54:59.995Z,4.83
2022-12-15T08:58:04.972Z,4.20
2022-12-15T09:01:17.439Z,4.30
2022-12-15T09:04:27.326Z,4.20
2022-12-15T09:07:34.891Z,4.03
2022-12-15T09:10:42.992Z,4.43
2022-12-15T09:13:47.942Z,4.20
2022-12-15T09:16:53.037Z,3.43
2022-12-15T09:19:58.583Z,4.40
2022-12-15T09:23:05.725Z,3.97
2022-12-15T09:26:12.851Z,6.23
2022-12-15T09:29:18.764Z,4.90
2022-12-15T09:32:23.777Z,5.10
2022-12-15T09:35:28.838Z,5.20
2022-12-15T09:38:38.204Z,8.63
2022-12-15T09:41:43.730Z,6.37
2022-12-15T09:44:49.510Z,5.87
2022-12-15T09:47:57.269Z,4.97
2022-12-15T09:51:04.489Z,4.47
2022-12-15T09:54:13.158Z,4.30
2022-12-15T09:57:25.338Z,5.03
2022-12-15T10:00:34.633Z,5.13
2022-12-15T10:03:50.832Z,6.67
2022-12-15T10:07:01.792Z,8.13
2022-12-15T10:10:11.156Z,7.23
2022-12-15T10:13:23.520Z,6.97
2022-12-15T10:16:32.262Z,6.00
2022-12-15T10:19:40.928Z,5.83
2022-12-15T10:22:45.967Z,5.70
2022-12-15T10:26:02.226Z,5.00
2022-12-15T10:29:18.292Z,5.27
2022-12-15T10:32:30.456Z,4.40
2022-12-15T10:35:39.765Z,5.27
2022-12-15T10:38:50.432Z,5.23
2022-12-15T10:42:22.990Z,4.53
2022-12-15T10:45:39.497Z,4.53
2022-12-15T10:48:48.677Z,4.80
2022-12-15T10:51:56.036Z,5.27
2022-12-15T10:55:01.482Z,5.00
2022-12-15T10:58:23.651Z,4.80
2022-12-15T11:01:30.669Z,5.70
2022-12-15T11:04:35.852Z,6.30
2022-12-15T11:07:42.985Z,5.30
2022-12-15T11:11:09.846Z,6.27
2022-12-15T11:14:23.550Z,5.40
2022-12-15T11:17:38.203Z,4.73
2022-12-15T11:20:46.446Z,4.50
2022-12-15T11:24:00.991Z,4.43
2022-12-15T11:27:14.045Z,5.23
2022-12-15T11:30:22.892Z,5.07
2022-12-15T11:33:28.410Z,5.30
2022-12-15T11:36:52.911Z,5.10
2022-12-15T11:40:06.563Z,5.43
2022-12-15T11:43:43.816Z,4.90
2022-12-15T11:46:56.932Z,5.13
2022-12-15T11:50:21.428Z,4.43
2022-12-15T11:53:54.333Z,5.30
2022-12-15T11:57:19.239Z,4.57
2022-12-15T12:00:25.083Z,4.27
2022-12-15T12:03:36.071Z,4.37
2022-12-15T12:06:46.476Z,4.50
2022-12-15T12:10:04.871Z,4.10
2022-12-15T12:13:15.357Z,4.43
2022-12-15T12:16:28.706Z,4.10
2022-12-15T12:19:38.952Z,4.70
2022-12-15T12:22:48.144Z,4.50
2022-12-15T12:26:06.063Z,5.07
2022-12-15T12:29:18.322Z,4.77
2022-12-15T12:32:29.268Z,4.30
2022-12-15T12:35:41.065Z,4.63
2022-12-15T12:38:50.722Z,4.70
2022-12-15T12:42:02.183Z,4.90
2022-12-15T12:45:12.138Z,4.37
2022-12-15T12:48:22.871Z,4.20
2022-12-15T12:51:32.209Z,3.97
2022-12-15T12:54:48.636Z,4.17
2022-12-15T12:57:56.013Z,4.47
2022-12-15T13:01:18.311Z,4.50
2022-12-15T13:04:39.214Z,5.27
2022-12-15T13:07:55.611Z,4.43
2022-12-15T13:11:39.304Z,4.20
2022-12-15T13:14:46.734Z,4.90
2022-12-15T13:17:59.474Z,4.10
2022-12-15T13:21:37.126Z,4.13
2022-12-15T13:24:50.449Z,4.30
2022-12-15T13:28:00.778Z,4.30
2022-12-15T13:31:30.905Z,4.40
2022-12-15T13:34:39.771Z,4.80
2022-12-15T13:37:50.890Z,4.67
2022-12-15T13:40:58.941Z,4.20
2022-12-15T13:44:15.978Z,4.17
2022-12-15T13:47:25.296Z,4.00
2022-12-15T13:50:34.813Z,4.60
2022-12-15T13:53:43.651Z,4.20
2022-12-15T13:56:54.697Z,4.23
2022-12-15T14:00:06.112Z,4.57
2022-12-15T14:03:17.204Z,4.43
2022-12-15T14:06:22.358Z,4.77
2022-12-15T14:09:31.148Z,4.27
2022-12-15T14:12:41.157Z,4.37
2022-12-15T14:15:50.857Z,4.87
2022-12-15T14:19:12.643Z,4.53
2022-12-15T14:22:28.157Z,4.30
2022-12-15T14:25:34.111Z,4.33
2022-12-15T14:28:43.090Z,5.03
2022-12-15T14:31:51.888Z,4.33
2022-12-15T14:34:56.891Z,4.27
2022-12-15T14:38:06.875Z,5.00
2022-12-15T14:41:20.513Z,4.40
2022-12-15T14:44:38.319Z,4.80
2022-12-15T14:48:30.580Z,5.67
2022-12-15T14:51:18.532Z,5.10
2022-12-15T14:54:35.688Z,4.33
2022-12-15T14:57:43.571Z,4.83
2022-12-15T15:00:53.022Z,4.73
2022-12-15T15:04:00.027Z,4.83
2022-12-15T15:07:06.973Z,5.03
2022-12-15T15:10:24.098Z,4.50
2022-12-15T15:13:39.516Z,4.40
2022-12-15T15:16:46.960Z,5.03
2022-12-15T15:19:53.687Z,5.03
2022-12-15T15:23:12.706Z,4.87
2022-12-15T15:26:18.654Z,4.90
2022-12-15T15:29:39.168Z,4.73
2022-12-15T15:32:54.305Z,4.50
2022-12-15T15:36:01.011Z,4.20
2022-12-15T15:39:12.930Z,4.47
2022-12-15T15:42:18.005Z,3.80
2022-12-15T15:45:23.760Z,4.40
2022-12-15T15:48:33.585Z,4.87
2022-12-15T15:51:39.619Z,4.40
2022-12-15T15:54:45.321Z,4.30
2022-12-15T15:57:50.446Z,4.00
2022-12-15T16:00:55.919Z,4.10
2022-12-15T16:04:02.370Z,4.23
2022-12-15T16:07:07.699Z,4.57
2022-12-15T16:10:15.369Z,4.07
2022-12-15T16:13:26.315Z,3.77
2022-12-15T16:16:33.665Z,4.17
2022-12-15T16:19:40.383Z,3.80
2022-12-15T16:22:47.340Z,4.00
2022-12-15T16:25:54.018Z,4.00
2022-12-15T16:28:59.691Z,4.93
2022-12-15T16:32:05.955Z,4.40
2022-12-15T16:35:13.004Z,4.47
2022-12-15T16:38:22.631Z,4.60
2022-12-15T16:41:27.883Z,5.07
2022-12-15T16:44:32.903Z,4.50
2022-12-15T16:47:39.287Z,4.33
2022-12-15T16:50:48.795Z,4.27
2022-12-15T16:53:53.784Z,4.43
2022-12-15T16:57:00.039Z,5.53
2022-12-15T17:00:15.887Z,4.73
2022-12-15T17:03:23.775Z,3.63
2022-12-15T17:06:30.361Z,3.57
2022-12-15T17:09:38.257Z,4.00
2022-12-15T17:12:44.561Z,4.53
2022-12-15T17:15:49.534Z,3.47
2022-12-15T17:18:54.924Z,3.93
2022-12-15T17:22:01.496Z,4.30
2022-12-15T17:25:07.374Z,3.40
2022-12-15T17:28:18.046Z,3.33
2022-12-15T17:31:31.528Z,2.60
2022-12-15T17:34:40.051Z,3.20
2022-12-15T17:37:47.160Z,3.10
2022-12-15T17:40:53.607Z,3.70
2022-12-15T17:44:24.034Z,3.20
2022-12-15T17:47:24.825Z,3.57
2022-12-15T17:50:29.840Z,4.93
2022-12-15T17:53:37.430Z,4.23
2022-12-15T17:56:42.976Z,2.90
2022-12-15T17:59:48.414Z,3.13
2022-12-15T18:02:53.977Z,3.10
2022-12-15T18:05:59.685Z,3.10
2022-12-15T18:09:07.148Z,3.27
2022-12-15T18:12:19.872Z,3.53
2022-12-15T18:15:27.623Z,3.07
2022-12-15T18:18:32.551Z,3.10
2022-12-15T18:21:40.048Z,2.77
2022-12-15T18:24:46.397Z,2.67
2022-12-15T18:27:55.151Z,2.40
2022-12-15T18:31:04.536Z,2.90
2022-12-15T18:34:13.914Z,2.67
2022-12-15T18:37:20.344Z,2.63
2022-12-15T18:40:29.200Z,2.63
2022-12-15T18:43:35.667Z,3.00
2022-12-15T18:46:46.177Z,2.80
2022-12-15T18:49:52.857Z,2.57
2022-12-15T18:53:00.810Z,2.73
2022-12-15T18:56:09.327Z,2.90
2022-12-15T18:59:16.004Z,2.77
2022-12-15T19:02:23.384Z,4.83
2022-12-15T19:05:30.077Z,5.70
2022-12-15T19:08:40.544Z,4.03
2022-12-15T19:12:17.815Z,3.50
2022-12-15T19:15:23.250Z,3.30
2022-12-15T19:18:46.351Z,2.53
2022-12-15T19:22:23.191Z,2.70
2022-12-15T19:25:29.784Z,2.87
2022-12-15T19:28:36.535Z,2.97
2022-12-15T19:31:42.693Z,3.00
2022-12-15T19:34:47.495Z,2.77
2022-12-15T19:37:55.143Z,2.90
2022-12-15T19:41:01.316Z,3.33
2022-12-15T19:44:12.456Z,3.00
2022-12-15T19:47:17.379Z,3.30
2022-12-15T19:50:24.419Z,4.13
2022-12-15T19:53:30.602Z,4.00
2022-12-15T19:56:36.624Z,4.30
2022-12-15T19:59:43.483Z,4.00
2022-12-15T20:02:49.078Z,3.90
2022-12-15T20:05:54.963Z,4.70
2022-12-15T20:09:01.511Z,3.97
2022-12-15T20:12:10.855Z,5.53
2022-12-15T20:15:19.338Z,5.87
2022-12-15T20:18:24.713Z,6.50
2022-12-15T20:21:34.497Z,6.70
2022-12-15T20:24:39.474Z,6.17
2022-12-15T20:27:44.623Z,7.13
2022-12-15T20:30:51.989Z,5.67
2022-12-15T20:33:57.118Z,6.67
2022-12-15T20:37:02.329Z,6.57
2022-12-15T20:40:22.379Z,6.93
2022-12-15T20:43:28.377Z,7.63
2022-12-15T20:46:36.072Z,6.40
2022-12-15T20:49:41.056Z,6.70
2022-12-15T20:52:45.993Z,7.33
2022-12-15T20:55:51.723Z,8.27
2022-12-15T20:58:58.088Z,7.20
2022-12-15T21:02:04.904Z,7.47
2022-12-15T21:05:18.228Z,7.20
2022-12-15T21:08:25.222Z,6.60
2022-12-15T21:11:33.515Z,7.03
2022-12-15T21:14:38.965Z,6.17
2022-12-15T21:17:46.038Z,5.60
2022-12-15T21:20:54.890Z,5.33
2022-12-15T21:24:00.122Z,5.10
2022-12-15T21:27:05.311Z,4.20
2022-12-15T21:30:17.600Z,5.37
2022-12-15T21:33:24.447Z,4.97
2022-12-15T21:36:29.649Z,4.97
2022-12-15T21:39:36.444Z,4.87
2022-12-15T21:42:42.895Z,5.23
2022-12-15T21:45:48.372Z,4.77
2022-12-15T21:49:12.249Z,5.00
2022-12-15T21:52:17.511Z,4.97
2022-12-15T21:55:24.001Z,7.00
2022-12-15T21:58:28.814Z,8.23
2022-12-15T22:01:34.102Z,7.77
2022-12-15T22:04:41.491Z,7.60
2022-12-15T22:07:46.845Z,8.17
2022-12-15T22:10:53.026Z,7.00
2022-12-15T22:14:02.744Z,6.67
2022-12-15T22:17:17.204Z,5.80
2022-12-15T22:20:25.452Z,5.47
2022-12-15T22:23:30.548Z,6.57
2022-12-15T22:27:00.244Z,5.50
2022-12-15T22:30:17.954Z,5.70
2022-12-15T22:33:25.432Z,3.67
2022-12-15T22:36:31.509Z,5.27
2022-12-15T22:39:36.410Z,5.60
2022-12-15T22:42:43.221Z,4.87
2022-12-15T22:45:50.786Z,4.70
2022-12-15T22:48:58.005Z,5.20
2022-12-15T22:52:04.594Z,4.43
2022-12-15T22:55:15.975Z,5.13
2022-12-15T22:58:26.905Z,5.00
2022-12-15T23:01:32.223Z,4.97
2022-12-15T23:04:37.644Z,4.93
2022-12-15T23:07:45.382Z,4.97
2022-12-15T23:11:08.471Z,5.03
2022-12-15T23:14:15.589Z,4.60
2022-12-15T23:17:19.980Z,4.23
2022-12-15T23:20:24.866Z,4.70
2022-12-15T23:23:32.935Z,4.23
2022-12-15T23:26:38.122Z,4.33
2022-12-15T23:29:43.190Z,4.90
2022-12-15T23:32:48.111Z,4.97
2022-12-15T23:35:55.066Z,5.00
2022-12-15T23:39:01.502Z,5.20
2022-12-15T23:42:06.703Z,4.50
2022-12-15T23:45:12.678Z,4.33
2022-12-15T23:48:17.794Z,5.07
2022-12-15T23:51:23.327Z,4.90
2022-12-15T23:54:29.699Z,4.87
2022-12-15T23:57:35.940Z,5.10
